sensor_id;sensor_type;location;lat;lon;timestamp;pressure;altitude;pressure_sealevel;temperature;humidity
77323;BME280;66384;51.052;9.850;2023-07-22T00:01:38;98404.93;;;14.94;68.70
77323;BME280;66384;51.052;9.850;2023-07-22T00:04:10;98409.58;;;14.88;68.83
77323;BME280;66384;51.052;9.850;2023-07-22T00:06:42;98411.28;;;14.81;68.98
77323;BME280;66384;51.052;9.850;2023-07-22T00:09:14;98419.74;;;14.77;69.17
77323;BME280;66384;51.052;9.850;2023-07-22T00:11:45;98421.80;;;14.73;69.39
77323;BME280;66384;51.052;9.850;2023-07-22T00:14:17;98416.59;;;14.70;69.39
77323;BME280;66384;51.052;9.850;2023-07-22T00:16:49;98417.11;;;14.69;69.53
77323;BME280;66384;51.052;9.850;2023-07-22T00:19:21;98420.06;;;14.71;69.37
77323;BME280;66384;51.052;9.850;2023-07-22T00:21:54;98420.41;;;14.70;69.34
77323;BME280;66384;51.052;9.850;2023-07-22T00:24:26;98422.13;;;14.68;69.25
77323;BME280;66384;51.052;9.850;2023-07-22T00:26:59;98417.61;;;14.65;69.33
77323;BME280;66384;51.052;9.850;2023-07-22T00:29:31;98415.52;;;14.62;69.30
77323;BME280;66384;51.052;9.850;2023-07-22T00:32:04;98417.58;;;14.59;69.32
77323;BME280;66384;51.052;9.850;2023-07-22T00:34:37;98417.05;;;14.57;69.36
77323;BME280;66384;51.052;9.850;2023-07-22T00:37:09;98417.22;;;14.55;69.23
77323;BME280;66384;51.052;9.850;2023-07-22T00:39:41;98418.92;;;14.54;69.18
77323;BME280;66384;51.052;9.850;2023-07-22T00:42:13;98416.87;;;14.55;69.23
77323;BME280;66384;51.052;9.850;2023-07-22T00:44:44;98418.77;;;14.58;68.96
77323;BME280;66384;51.052;9.850;2023-07-22T00:47:17;98418.60;;;14.56;68.76
77323;BME280;66384;51.052;9.850;2023-07-22T00:49:50;98418.75;;;14.54;68.76
77323;BME280;66384;51.052;9.850;2023-07-22T00:52:22;98423.06;;;14.51;68.97
77323;BME280;66384;51.052;9.850;2023-07-22T00:54:54;98418.52;;;14.48;68.83
77323;BME280;66384;51.052;9.850;2023-07-22T00:57:26;98418.33;;;14.45;68.42
77323;BME280;66384;51.052;9.850;2023-07-22T00:59:58;98418.46;;;14.39;68.23
77323;BME280;66384;51.052;9.850;2023-07-22T01:02:31;98420.66;;;14.31;68.18
77323;BME280;66384;51.052;9.850;2023-07-22T01:05:04;98420.79;;;14.26;68.23
77323;BME280;66384;51.052;9.850;2023-07-22T01:07:36;98416.09;;;14.21;68.11
77323;BME280;66384;51.052;9.850;2023-07-22T01:10:09;98421.23;;;14.17;67.98
77323;BME280;66384;51.052;9.850;2023-07-22T01:12:41;98420.17;;;14.12;67.83
77323;BME280;66384;51.052;9.850;2023-07-22T01:15:13;98418.23;;;14.06;68.13
77323;BME280;66384;51.052;9.850;2023-07-22T01:17:45;98415.26;;;14.02;68.11
77323;BME280;66384;51.052;9.850;2023-07-22T01:20:18;98423.70;;;13.99;68.10
77323;BME280;66384;51.052;9.850;2023-07-22T01:22:52;98422.30;;;13.96;67.91
77323;BME280;66384;51.052;9.850;2023-07-22T01:25:25;98420.51;;;13.90;67.90
77323;BME280;66384;51.052;9.850;2023-07-22T01:28:00;98423.77;;;13.85;67.85
77323;BME280;66384;51.052;9.850;2023-07-22T01:30:31;98425.60;;;13.78;67.68
77323;BME280;66384;51.052;9.850;2023-07-22T01:33:03;98429.52;;;13.71;67.68
77323;BME280;66384;51.052;9.850;2023-07-22T01:35:35;98429.47;;;13.67;67.71
77323;BME280;66384;51.052;9.850;2023-07-22T01:38:07;98430.66;;;13.65;67.59
77323;BME280;66384;51.052;9.850;2023-07-22T01:40:39;98428.05;;;13.63;67.46
77323;BME280;66384;51.052;9.850;2023-07-22T01:43:11;98429.39;;;13.58;67.37
77323;BME280;66384;51.052;9.850;2023-07-22T01:45:43;98427.98;;;13.56;67.41
77323;BME280;66384;51.052;9.850;2023-07-22T01:48:16;98430.39;;;13.54;67.36
77323;BME280;66384;51.052;9.850;2023-07-22T01:50:48;98428.64;;;13.52;67.33
77323;BME280;66384;51.052;9.850;2023-07-22T01:53:19;98431.70;;;13.49;67.13
77323;BME280;66384;51.052;9.850;2023-07-22T01:55:51;98426.14;;;13.44;67.23
77323;BME280;66384;51.052;9.850;2023-07-22T01:58:23;98426.26;;;13.39;67.23
77323;BME280;66384;51.052;9.850;2023-07-22T02:00:55;98425.34;;;13.35;67.29
77323;BME280;66384;51.052;9.850;2023-07-22T02:03:26;98423.40;;;13.31;67.36
77323;BME280;66384;51.052;9.850;2023-07-22T02:06:04;98429.08;;;13.28;67.31
77323;BME280;66384;51.052;9.850;2023-07-22T02:08:35;98429.65;;;13.21;67.25
77323;BME280;66384;51.052;9.850;2023-07-22T02:11:08;98434.60;;;13.16;67.41
77323;BME280;66384;51.052;9.850;2023-07-22T02:13:40;98434.71;;;13.10;67.18
77323;BME280;66384;51.052;9.850;2023-07-22T02:16:12;98436.05;;;13.06;67.17
77323;BME280;66384;51.052;9.850;2023-07-22T02:18:43;98435.14;;;13.03;67.38
77323;BME280;66384;51.052;9.850;2023-07-22T02:21:15;98435.48;;;13.03;67.44
77323;BME280;66384;51.052;9.850;2023-07-22T02:23:47;98438.23;;;13.01;67.60
77323;BME280;66384;51.052;9.850;2023-07-22T02:26:18;98445.13;;;13.01;67.41
77323;BME280;66384;51.052;9.850;2023-07-22T02:28:50;98446.02;;;13.03;67.24
77323;BME280;66384;51.052;9.850;2023-07-22T02:31:22;98445.80;;;13.00;67.19
77323;BME280;66384;51.052;9.850;2023-07-22T02:33:54;98446.47;;;12.98;67.52
77323;BME280;66384;51.052;9.850;2023-07-22T02:36:26;98444.54;;;12.95;67.31
77323;BME280;66384;51.052;9.850;2023-07-22T02:38:58;98445.19;;;12.92;67.11
77323;BME280;66384;51.052;9.850;2023-07-22T02:41:30;98443.91;;;12.87;67.07
77323;BME280;66384;51.052;9.850;2023-07-22T02:44:02;98440.40;;;12.83;67.05
77323;BME280;66384;51.052;9.850;2023-07-22T02:46:34;98449.83;;;12.77;66.99
77323;BME280;66384;51.052;9.850;2023-07-22T02:49:06;98452.67;;;12.71;66.84
77323;BME280;66384;51.052;9.850;2023-07-22T02:51:38;98452.45;;;12.67;66.97
77323;BME280;66384;51.052;9.850;2023-07-22T02:54:10;98448.23;;;12.63;66.82
77323;BME280;66384;51.052;9.850;2023-07-22T02:56:42;98451.68;;;12.61;66.97
77323;BME280;66384;51.052;9.850;2023-07-22T02:59:14;98450.41;;;12.58;66.84
77323;BME280;66384;51.052;9.850;2023-07-22T03:01:45;98447.45;;;12.55;66.85
77323;BME280;66384;51.052;9.850;2023-07-22T03:04:17;98452.95;;;12.53;66.76
77323;BME280;66384;51.052;9.850;2023-07-22T03:06:50;98453.23;;;12.50;66.93
77323;BME280;66384;51.052;9.850;2023-07-22T03:09:22;98449.72;;;12.45;67.07
77323;BME280;66384;51.052;9.850;2023-07-22T03:11:54;98454.31;;;12.41;67.10
77323;BME280;66384;51.052;9.850;2023-07-22T03:14:27;98454.27;;;12.39;67.17
77323;BME280;66384;51.052;9.850;2023-07-22T03:16:59;98457.71;;;12.38;67.26
77323;BME280;66384;51.052;9.850;2023-07-22T03:19:30;98460.77;;;12.34;67.46
77323;BME280;66384;51.052;9.850;2023-07-22T03:22:02;98462.61;;;12.31;67.55
77323;BME280;66384;51.052;9.850;2023-07-22T03:24:34;98464.48;;;12.28;67.66
77323;BME280;66384;51.052;9.850;2023-07-22T03:27:06;98462.92;;;12.28;67.64
77323;BME280;66384;51.052;9.850;2023-07-22T03:29:40;98468.12;;;12.30;67.61
77323;BME280;66384;51.052;9.850;2023-07-22T03:32:12;98470.18;;;12.30;67.14
77323;BME280;66384;51.052;9.850;2023-07-22T03:34:44;98470.88;;;12.29;67.07
77323;BME280;66384;51.052;9.850;2023-07-22T03:37:15;98474.98;;;12.27;66.89
77323;BME280;66384;51.052;9.850;2023-07-22T03:39:47;98473.86;;;12.22;67.05
77323;BME280;66384;51.052;9.850;2023-07-22T03:42:19;98475.65;;;12.16;67.14
77323;BME280;66384;51.052;9.850;2023-07-22T03:44:50;98476.95;;;12.11;67.34
77323;BME280;66384;51.052;9.850;2023-07-22T03:47:22;98484.42;;;12.05;67.51
77323;BME280;66384;51.052;9.850;2023-07-22T03:49:54;98483.81;;;11.99;67.61
77323;BME280;66384;51.052;9.850;2023-07-22T03:52:26;98483.42;;;11.96;67.80
77323;BME280;66384;51.052;9.850;2023-07-22T03:54:57;98488.05;;;11.95;67.79
77323;BME280;66384;51.052;9.850;2023-07-22T03:57:30;98485.27;;;11.94;68.15
77323;BME280;66384;51.052;9.850;2023-07-22T04:00:02;98484.42;;;11.95;68.20
77323;BME280;66384;51.052;9.850;2023-07-22T04:02:36;98487.37;;;11.95;68.66
77323;BME280;66384;51.052;9.850;2023-07-22T04:05:10;98490.97;;;11.95;68.94
77323;BME280;66384;51.052;9.850;2023-07-22T04:07:45;98490.48;;;11.97;68.85
77323;BME280;66384;51.052;9.850;2023-07-22T04:10:17;98485.33;;;11.98;69.13
77323;BME280;66384;51.052;9.850;2023-07-22T04:12:49;98487.09;;;11.98;69.39
77323;BME280;66384;51.052;9.850;2023-07-22T04:15:21;98486.53;;;11.97;69.49
77323;BME280;66384;51.052;9.850;2023-07-22T04:17:52;98485.15;;;11.96;69.69
77323;BME280;66384;51.052;9.850;2023-07-22T04:20:24;98486.21;;;11.98;69.83
77323;BME280;66384;51.052;9.850;2023-07-22T04:22:56;98489.37;;;12.01;70.10
77323;BME280;66384;51.052;9.850;2023-07-22T04:25:28;98494.39;;;12.02;70.34
77323;BME280;66384;51.052;9.850;2023-07-22T04:28:00;98493.39;;;12.05;70.27
77323;BME280;66384;51.052;9.850;2023-07-22T04:30:31;98492.63;;;12.11;70.43
77323;BME280;66384;51.052;9.850;2023-07-22T04:33:03;98487.00;;;12.13;70.46
77323;BME280;66384;51.052;9.850;2023-07-22T04:35:38;98488.05;;;12.15;70.83
77323;BME280;66384;51.052;9.850;2023-07-22T04:38:12;98491.02;;;12.16;70.90
77323;BME280;66384;51.052;9.850;2023-07-22T04:40:45;98489.82;;;12.17;71.10
77323;BME280;66384;51.052;9.850;2023-07-22T04:43:17;98490.91;;;12.21;71.39
77323;BME280;66384;51.052;9.850;2023-07-22T04:45:52;98493.23;;;12.26;71.52
77323;BME280;66384;51.052;9.850;2023-07-22T04:48:24;98496.98;;;12.34;71.52
77323;BME280;66384;51.052;9.850;2023-07-22T04:50:56;98499.66;;;12.40;71.74
77323;BME280;66384;51.052;9.850;2023-07-22T04:53:30;98498.19;;;12.46;71.82
77323;BME280;66384;51.052;9.850;2023-07-22T04:56:02;98496.56;;;12.52;72.14
77323;BME280;66384;51.052;9.850;2023-07-22T04:58:34;98497.70;;;12.58;72.17
77323;BME280;66384;51.052;9.850;2023-07-22T05:01:05;98497.79;;;12.65;72.17
77323;BME280;66384;51.052;9.850;2023-07-22T05:03:39;98493.57;;;12.71;72.14
77323;BME280;66384;51.052;9.850;2023-07-22T05:06:11;98495.02;;;12.76;72.29
77323;BME280;66384;51.052;9.850;2023-07-22T05:08:43;98498.73;;;12.82;72.39
77323;BME280;66384;51.052;9.850;2023-07-22T05:11:14;98500.21;;;12.89;72.43
77323;BME280;66384;51.052;9.850;2023-07-22T05:13:47;98496.18;;;12.97;72.29
77323;BME280;66384;51.052;9.850;2023-07-22T05:16:21;98491.96;;;13.05;72.26
77323;BME280;66384;51.052;9.850;2023-07-22T05:18:53;98492.94;;;13.13;72.28
77323;BME280;66384;51.052;9.850;2023-07-22T05:21:25;98491.98;;;13.19;72.16
77323;BME280;66384;51.052;9.850;2023-07-22T05:23:57;98496.39;;;13.25;72.11
77323;BME280;66384;51.052;9.850;2023-07-22T05:26:29;98496.79;;;13.28;71.94
77323;BME280;66384;51.052;9.850;2023-07-22T05:29:01;98497.51;;;13.32;71.77
77323;BME280;66384;51.052;9.850;2023-07-22T05:31:33;98495.16;;;13.38;71.79
77323;BME280;66384;51.052;9.850;2023-07-22T05:34:05;98495.55;;;13.41;71.66
77323;BME280;66384;51.052;9.850;2023-07-22T05:36:36;98497.31;;;13.44;71.61
77323;BME280;66384;51.052;9.850;2023-07-22T05:39:08;98500.42;;;13.45;71.60
77323;BME280;66384;51.052;9.850;2023-07-22T05:41:40;98499.76;;;13.47;71.47
77323;BME280;66384;51.052;9.850;2023-07-22T05:44:12;98500.48;;;13.51;71.36
77323;BME280;66384;51.052;9.850;2023-07-22T05:46:44;98501.40;;;13.55;71.48
77323;BME280;66384;51.052;9.850;2023-07-22T05:49:15;98495.59;;;13.60;71.28
77323;BME280;66384;51.052;9.850;2023-07-22T05:51:47;98500.47;;;13.64;71.27
77323;BME280;66384;51.052;9.850;2023-07-22T05:54:19;98498.06;;;13.65;71.29
77323;BME280;66384;51.052;9.850;2023-07-22T05:56:52;98500.17;;;13.69;71.36
77323;BME280;66384;51.052;9.850;2023-07-22T05:59:25;98500.89;;;13.71;71.35
77323;BME280;66384;51.052;9.850;2023-07-22T06:01:56;98505.08;;;13.74;71.23
77323;BME280;66384;51.052;9.850;2023-07-22T06:04:28;98497.34;;;13.78;71.13
77323;BME280;66384;51.052;9.850;2023-07-22T06:07:00;98497.73;;;13.84;71.16
77323;BME280;66384;51.052;9.850;2023-07-22T06:09:32;98496.23;;;13.90;71.01
77323;BME280;66384;51.052;9.850;2023-07-22T06:12:06;98498.20;;;13.96;70.94
77323;BME280;66384;51.052;9.850;2023-07-22T06:14:37;98508.28;;;14.01;70.84
77323;BME280;66384;51.052;9.850;2023-07-22T06:17:09;98509.70;;;14.05;70.63
77323;BME280;66384;51.052;9.850;2023-07-22T06:19:41;98510.75;;;14.06;70.36
77323;BME280;66384;51.052;9.850;2023-07-22T06:22:13;98513.87;;;14.07;70.53
77323;BME280;66384;51.052;9.850;2023-07-22T06:24:45;98510.05;;;14.07;70.45
77323;BME280;66384;51.052;9.850;2023-07-22T06:27:17;98508.36;;;14.09;70.62
77323;BME280;66384;51.052;9.850;2023-07-22T06:29:49;98509.43;;;14.13;70.75
77323;BME280;66384;51.052;9.850;2023-07-22T06:32:20;98506.89;;;14.20;70.75
77323;BME280;66384;51.052;9.850;2023-07-22T06:34:52;98508.86;;;14.27;70.53
77323;BME280;66384;51.052;9.850;2023-07-22T06:37:24;98509.77;;;14.33;70.28
77323;BME280;66384;51.052;9.850;2023-07-22T06:39:56;98505.84;;;14.39;69.59
77323;BME280;66384;51.052;9.850;2023-07-22T06:42:28;98509.17;;;14.44;69.30
77323;BME280;66384;51.052;9.850;2023-07-22T06:45:00;98508.16;;;14.49;69.01
77323;BME280;66384;51.052;9.850;2023-07-22T06:47:32;98511.69;;;14.53;68.47
77323;BME280;66384;51.052;9.850;2023-07-22T06:50:04;98516.90;;;14.55;68.39
77323;BME280;66384;51.052;9.850;2023-07-22T06:52:36;98521.77;;;14.58;68.42
77323;BME280;66384;51.052;9.850;2023-07-22T06:55:08;98521.63;;;14.64;68.39
77323;BME280;66384;51.052;9.850;2023-07-22T06:57:41;98518.23;;;14.73;68.52
77323;BME280;66384;51.052;9.850;2023-07-22T07:00:14;98515.86;;;14.83;67.98
77323;BME280;66384;51.052;9.850;2023-07-22T07:02:49;98516.08;;;14.89;67.64
77323;BME280;66384;51.052;9.850;2023-07-22T07:05:21;98517.52;;;14.96;67.15
77323;BME280;66384;51.052;9.850;2023-07-22T07:07:53;98515.64;;;15.02;67.09
77323;BME280;66384;51.052;9.850;2023-07-22T07:10:25;98519.14;;;15.09;66.81
77323;BME280;66384;51.052;9.850;2023-07-22T07:12:57;98520.38;;;15.15;66.31
77323;BME280;66384;51.052;9.850;2023-07-22T07:15:30;98528.20;;;15.19;65.99
77323;BME280;66384;51.052;9.850;2023-07-22T07:18:01;98527.88;;;15.25;65.56
77323;BME280;66384;51.052;9.850;2023-07-22T07:20:33;98530.16;;;15.32;65.41
77323;BME280;66384;51.052;9.850;2023-07-22T07:23:05;98531.41;;;15.40;65.04
77323;BME280;66384;51.052;9.850;2023-07-22T07:25:37;98532.13;;;15.46;65.03
77323;BME280;66384;51.052;9.850;2023-07-22T07:28:08;98533.89;;;15.52;64.79
77323;BME280;66384;51.052;9.850;2023-07-22T07:30:42;98534.95;;;15.58;65.01
77323;BME280;66384;51.052;9.850;2023-07-22T07:33:14;98535.32;;;15.64;64.83
77323;BME280;66384;51.052;9.850;2023-07-22T07:35:48;98537.42;;;15.68;64.61
77323;BME280;66384;51.052;9.850;2023-07-22T07:38:20;98540.40;;;15.72;64.32
77323;BME280;66384;51.052;9.850;2023-07-22T07:40:55;98540.77;;;15.79;63.98
77323;BME280;66384;51.052;9.850;2023-07-22T07:43:27;98541.66;;;15.86;63.95
77323;BME280;66384;51.052;9.850;2023-07-22T07:46:15;98550.34;;;15.94;63.81
77323;BME280;66384;51.052;9.850;2023-07-22T07:48:50;98547.77;;;16.03;63.71
77323;BME280;66384;51.052;9.850;2023-07-22T07:51:24;98550.04;;;16.11;62.97
77323;BME280;66384;51.052;9.850;2023-07-22T07:53:58;98548.84;;;16.18;62.61
77323;BME280;66384;51.052;9.850;2023-07-22T07:56:30;98553.17;;;16.22;62.31
77323;BME280;66384;51.052;9.850;2023-07-22T07:59:02;98555.61;;;16.25;62.20
77323;BME280;66384;51.052;9.850;2023-07-22T08:01:35;98556.13;;;16.29;62.01
77323;BME280;66384;51.052;9.850;2023-07-22T08:04:12;98559.42;;;16.32;61.82
77323;BME280;66384;51.052;9.850;2023-07-22T08:06:44;98561.87;;;16.33;61.69
77323;BME280;66384;51.052;9.850;2023-07-22T08:09:16;98563.23;;;16.32;61.43
77323;BME280;66384;51.052;9.850;2023-07-22T08:11:49;98564.98;;;16.33;61.59
77323;BME280;66384;51.052;9.850;2023-07-22T08:14:21;98565.85;;;16.34;61.50
77323;BME280;66384;51.052;9.850;2023-07-22T08:16:53;98563.09;;;16.40;62.05
77323;BME280;66384;51.052;9.850;2023-07-22T08:19:25;98560.66;;;16.55;61.76
77323;BME280;66384;51.052;9.850;2023-07-22T08:21:57;98559.27;;;16.71;61.41
77323;BME280;66384;51.052;9.850;2023-07-22T08:24:29;98557.36;;;16.91;61.30
77323;BME280;66384;51.052;9.850;2023-07-22T08:27:01;98550.03;;;17.09;60.70
77323;BME280;66384;51.052;9.850;2023-07-22T08:29:33;98549.11;;;17.29;60.45
77323;BME280;66384;51.052;9.850;2023-07-22T08:32:06;98546.24;;;17.52;60.13
77323;BME280;66384;51.052;9.850;2023-07-22T08:34:38;98545.47;;;17.70;59.00
77323;BME280;66384;51.052;9.850;2023-07-22T08:37:10;98544.90;;;17.84;58.69
77323;BME280;66384;51.052;9.850;2023-07-22T08:39:43;98542.05;;;17.96;58.11
77323;BME280;66384;51.052;9.850;2023-07-22T08:42:16;98536.42;;;18.07;57.63
77323;BME280;66384;51.052;9.850;2023-07-22T08:44:50;98534.95;;;18.18;57.50
77323;BME280;66384;51.052;9.850;2023-07-22T08:47:25;98538.34;;;18.31;56.81
77323;BME280;66384;51.052;9.850;2023-07-22T08:50:02;98537.63;;;18.35;55.26
77323;BME280;66384;51.052;9.850;2023-07-22T08:52:36;98539.88;;;18.35;54.83
77323;BME280;66384;51.052;9.850;2023-07-22T08:55:10;98533.61;;;18.36;54.60
77323;BME280;66384;51.052;9.850;2023-07-22T08:57:42;98531.48;;;18.39;54.88
77323;BME280;66384;51.052;9.850;2023-07-22T09:00:15;98525.00;;;18.46;55.16
77323;BME280;66384;51.052;9.850;2023-07-22T09:02:47;98532.05;;;18.54;54.63
77323;BME280;66384;51.052;9.850;2023-07-22T09:05:20;98535.52;;;18.58;53.56
77323;BME280;66384;51.052;9.850;2023-07-22T09:07:52;98533.59;;;18.59;52.65
77323;BME280;66384;51.052;9.850;2023-07-22T09:10:25;98534.63;;;18.61;52.02
77323;BME280;66384;51.052;9.850;2023-07-22T09:13:00;98536.48;;;18.67;52.28
77323;BME280;66384;51.052;9.850;2023-07-22T09:15:33;98526.46;;;18.79;52.97
77323;BME280;66384;51.052;9.850;2023-07-22T09:18:06;98524.62;;;18.91;52.54
77323;BME280;66384;51.052;9.850;2023-07-22T09:20:38;98524.02;;;18.99;51.55
77323;BME280;66384;51.052;9.850;2023-07-22T09:23:11;98525.00;;;19.03;51.27
77323;BME280;66384;51.052;9.850;2023-07-22T09:25:44;98523.71;;;19.09;51.20
77323;BME280;66384;51.052;9.850;2023-07-22T09:28:16;98524.02;;;19.13;50.83
77323;BME280;66384;51.052;9.850;2023-07-22T09:30:48;98525.92;;;19.15;50.31
77323;BME280;66384;51.052;9.850;2023-07-22T09:33:22;98523.85;;;19.15;49.78
77323;BME280;66384;51.052;9.850;2023-07-22T09:35:57;98525.40;;;19.16;49.62
77323;BME280;66384;51.052;9.850;2023-07-22T09:38:29;98524.18;;;19.16;49.84
77323;BME280;66384;51.052;9.850;2023-07-22T09:41:01;98521.36;;;19.18;49.77
77323;BME280;66384;51.052;9.850;2023-07-22T09:43:35;98523.60;;;19.21;49.22
77323;BME280;66384;51.052;9.850;2023-07-22T09:46:11;98515.55;;;19.23;49.35
77323;BME280;66384;51.052;9.850;2023-07-22T09:48:56;98510.08;;;19.29;49.11
77323;BME280;66384;51.052;9.850;2023-07-22T09:51:34;98506.45;;;19.39;49.45
77323;BME280;66384;51.052;9.850;2023-07-22T09:54:27;98505.56;;;19.55;49.28
77323;BME280;66384;51.052;9.850;2023-07-22T09:57:02;98506.09;;;19.70;49.21
77323;BME280;66384;51.052;9.850;2023-07-22T09:59:35;98505.27;;;19.80;48.01
77323;BME280;66384;51.052;9.850;2023-07-22T10:02:09;98505.52;;;19.87;48.24
77323;BME280;66384;51.052;9.850;2023-07-22T10:04:42;98506.16;;;19.90;46.92
77323;BME280;66384;51.052;9.850;2023-07-22T10:07:15;98502.29;;;19.93;46.77
77323;BME280;66384;51.052;9.850;2023-07-22T10:09:48;98498.57;;;19.96;46.34
77323;BME280;66384;51.052;9.850;2023-07-22T10:12:21;98495.02;;;20.00;46.72
77323;BME280;66384;51.052;9.850;2023-07-22T10:14:54;98490.58;;;20.06;45.53
77323;BME280;66384;51.052;9.850;2023-07-22T10:17:27;98493.77;;;20.13;45.15
77323;BME280;66384;51.052;9.850;2023-07-22T10:20:00;98487.58;;;20.19;45.10
77323;BME280;66384;51.052;9.850;2023-07-22T10:22:37;98493.77;;;20.25;44.16
77323;BME280;66384;51.052;9.850;2023-07-22T10:25:10;98487.60;;;20.29;42.93
77323;BME280;66384;51.052;9.850;2023-07-22T10:27:42;98486.45;;;20.35;42.17
77323;BME280;66384;51.052;9.850;2023-07-22T10:30:15;98485.98;;;20.41;42.59
77323;BME280;66384;51.052;9.850;2023-07-22T10:32:49;98487.96;;;20.48;41.90
77323;BME280;66384;51.052;9.850;2023-07-22T10:38:14;98483.05;;;20.51;41.75
77323;BME280;66384;51.052;9.850;2023-07-22T10:40:49;98478.13;;;20.52;42.45
77323;BME280;66384;51.052;9.850;2023-07-22T10:43:27;98475.45;;;20.57;42.14
77323;BME280;66384;51.052;9.850;2023-07-22T10:46:05;98471.55;;;20.59;41.94
77323;BME280;66384;51.052;9.850;2023-07-22T10:48:39;98467.47;;;20.63;41.64
77323;BME280;66384;51.052;9.850;2023-07-22T10:51:14;98466.64;;;20.70;41.63
77323;BME280;66384;51.052;9.850;2023-07-22T10:53:48;98462.03;;;20.74;40.83
77323;BME280;66384;51.052;9.850;2023-07-22T10:56:22;98467.45;;;20.73;41.31
77323;BME280;66384;51.052;9.850;2023-07-22T10:59:00;98467.92;;;20.76;41.31
77323;BME280;66384;51.052;9.850;2023-07-22T11:01:35;98464.52;;;20.80;42.01
77323;BME280;66384;51.052;9.850;2023-07-22T11:04:17;98460.64;;;20.83;41.72
77323;BME280;66384;51.052;9.850;2023-07-22T11:06:56;98457.23;;;20.87;41.43
77323;BME280;66384;51.052;9.850;2023-07-22T11:09:39;98454.79;;;20.96;41.29
77323;BME280;66384;51.052;9.850;2023-07-22T11:12:16;98448.32;;;21.05;40.88
77323;BME280;66384;51.052;9.850;2023-07-22T11:14:50;98445.40;;;21.11;40.15
77323;BME280;66384;51.052;9.850;2023-07-22T11:17:30;98440.86;;;21.11;40.29
77323;BME280;66384;51.052;9.850;2023-07-22T11:20:03;98433.48;;;21.12;40.59
77323;BME280;66384;51.052;9.850;2023-07-22T11:22:36;98439.45;;;21.12;40.89
77323;BME280;66384;51.052;9.850;2023-07-22T11:25:18;98436.08;;;21.13;41.09
77323;BME280;66384;51.052;9.850;2023-07-22T11:27:50;98437.64;;;21.14;40.81
77323;BME280;66384;51.052;9.850;2023-07-22T11:30:24;98431.73;;;21.13;40.21
77323;BME280;66384;51.052;9.850;2023-07-22T11:32:58;98432.38;;;21.15;40.09
77323;BME280;66384;51.052;9.850;2023-07-22T11:35:30;98429.36;;;21.17;39.68
77323;BME280;66384;51.052;9.850;2023-07-22T11:38:05;98422.30;;;21.20;39.63
77323;BME280;66384;51.052;9.850;2023-07-22T11:40:37;98422.39;;;21.24;39.69
77323;BME280;66384;51.052;9.850;2023-07-22T11:43:08;98420.12;;;21.24;39.78
77323;BME280;66384;51.052;9.850;2023-07-22T11:45:40;98415.05;;;21.24;39.88
77323;BME280;66384;51.052;9.850;2023-07-22T11:48:13;98411.15;;;21.26;39.80
77323;BME280;66384;51.052;9.850;2023-07-22T11:50:45;98410.10;;;21.26;39.57
77323;BME280;66384;51.052;9.850;2023-07-22T11:53:17;98409.84;;;21.30;40.10
77323;BME280;66384;51.052;9.850;2023-07-22T11:55:49;98408.15;;;21.37;40.12
77323;BME280;66384;51.052;9.850;2023-07-22T11:58:27;98404.48;;;21.45;39.85
77323;BME280;66384;51.052;9.850;2023-07-22T12:01:10;98401.92;;;21.50;39.88
77323;BME280;66384;51.052;9.850;2023-07-22T12:03:41;98402.36;;;21.54;38.65
77323;BME280;66384;51.052;9.850;2023-07-22T12:06:14;98399.81;;;21.57;37.90
77323;BME280;66384;51.052;9.850;2023-07-22T12:08:48;98393.73;;;21.63;37.91
77323;BME280;66384;51.052;9.850;2023-07-22T12:11:21;98393.00;;;21.72;38.47
77323;BME280;66384;51.052;9.850;2023-07-22T12:14:08;98394.70;;;21.82;38.23
77323;BME280;66384;51.052;9.850;2023-07-22T12:16:44;98391.55;;;21.89;37.29
77323;BME280;66384;51.052;9.850;2023-07-22T12:19:16;98392.27;;;21.96;37.07
77323;BME280;66384;51.052;9.850;2023-07-22T12:21:48;98386.04;;;22.00;36.83
77323;BME280;66384;51.052;9.850;2023-07-22T12:24:20;98391.02;;;22.04;37.17
77323;BME280;66384;51.052;9.850;2023-07-22T12:26:52;98392.52;;;22.07;37.06
77323;BME280;66384;51.052;9.850;2023-07-22T12:29:24;98384.84;;;22.06;37.01
77323;BME280;66384;51.052;9.850;2023-07-22T12:31:56;98389.21;;;22.05;37.04
77323;BME280;66384;51.052;9.850;2023-07-22T12:34:28;98382.02;;;22.06;36.19
77323;BME280;66384;51.052;9.850;2023-07-22T12:36:59;98381.77;;;22.01;36.26
77323;BME280;66384;51.052;9.850;2023-07-22T12:39:31;98373.38;;;21.95;36.52
77323;BME280;66384;51.052;9.850;2023-07-22T12:42:04;98373.60;;;21.93;36.95
77323;BME280;66384;51.052;9.850;2023-07-22T12:44:36;98374.15;;;21.92;37.15
77323;BME280;66384;51.052;9.850;2023-07-22T12:47:09;98375.77;;;21.89;36.95
77323;BME280;66384;51.052;9.850;2023-07-22T12:49:41;98375.86;;;21.86;36.65
77323;BME280;66384;51.052;9.850;2023-07-22T12:52:13;98372.64;;;21.82;36.53
77323;BME280;66384;51.052;9.850;2023-07-22T12:54:44;98372.80;;;21.83;36.90
77323;BME280;66384;51.052;9.850;2023-07-22T12:57:16;98372.70;;;21.86;37.04
77323;BME280;66384;51.052;9.850;2023-07-22T12:59:48;98371.75;;;21.89;37.09
77323;BME280;66384;51.052;9.850;2023-07-22T13:02:20;98370.23;;;21.95;37.31
77323;BME280;66384;51.052;9.850;2023-07-22T13:04:53;98363.94;;;22.01;37.21
77323;BME280;66384;51.052;9.850;2023-07-22T13:07:25;98364.70;;;22.12;37.15
77323;BME280;66384;51.052;9.850;2023-07-22T13:09:59;98358.19;;;22.21;37.11
77323;BME280;66384;51.052;9.850;2023-07-22T13:12:36;98353.80;;;22.35;36.97
77323;BME280;66384;51.052;9.850;2023-07-22T13:15:09;98351.88;;;22.47;37.13
77323;BME280;66384;51.052;9.850;2023-07-22T13:17:41;98352.73;;;22.54;37.06
77323;BME280;66384;51.052;9.850;2023-07-22T13:20:13;98361.06;;;22.58;36.37
77323;BME280;66384;51.052;9.850;2023-07-22T13:22:47;98358.77;;;22.58;36.56
77323;BME280;66384;51.052;9.850;2023-07-22T13:25:20;98353.73;;;22.57;36.57
77323;BME280;66384;51.052;9.850;2023-07-22T13:27:51;98349.32;;;22.51;36.50
77323;BME280;66384;51.052;9.850;2023-07-22T13:30:23;98343.13;;;22.47;36.98
77323;BME280;66384;51.052;9.850;2023-07-22T13:32:55;98345.87;;;22.43;37.26